Time;durP1;ratioP1;P1;durP2;ratioP2;P2;SDS_P1;SDS_P2;PMS_P1;PMS_P2;Temp;Humidity;BMP_temperature;BMP_pressure;BME280_temperature;BME280_humidity;BME280_pressure;Samples;Min_cycle;Max_cycle;Signal;HPM_P1;HPM_P2
2022/06/17 00:01:41;;;;;;;2.65;1.73;;;;;;;24.19;35.66;100043.38;4175027;28;20270;-70
2022/06/17 00:03:42;;;;;;;1.88;1.52;;;;;;;24.61;34.99;100053.94;4180799;28;20754;-70
2022/06/17 00:05:45;;;;;;;3.45;1.35;;;;;;;24.82;35.15;100038.84;4190237;28;20263;-70
2022/06/17 00:07:46;;;;;;;3.92;1.45;;;;;;;24.22;35.50;100057.31;4173796;28;20236;-70
2022/06/17 00:09:48;;;;;;;1.58;1.27;;;;;;;24.54;35.12;100051.38;4182440;28;20801;-70
2022/06/17 00:11:50;;;;;;;4.15;1.52;;;;;;;24.06;35.71;100061.59;4178844;28;20743;-71
2022/06/17 00:13:52;;;;;;;4.07;1.52;;;;;;;23.72;35.99;100066.03;4191327;28;20239;-70
2022/06/17 00:15:53;;;;;;;1.63;1.52;;;;;;;24.70;34.97;100041.59;4184385;28;20227;-70
2022/06/17 00:17:55;;;;;;;1.80;1.50;;;;;;;23.65;36.39;100051.78;4177160;28;20235;-70
2022/06/17 00:19:57;;;;;;;2.13;1.60;;;;;;;24.48;35.45;100036.88;4177132;28;20235;-70
2022/06/17 00:22:00;;;;;;;3.42;1.80;;;;;;;24.27;35.64;100049.25;4171655;28;20240;-70
2022/06/17 00:24:11;;;;;;;2.75;1.90;;;;;;;24.02;35.95;100057.69;4178002;28;20224;-70
2022/06/17 00:26:13;;;;;;;1.50;1.40;;;;;;;24.71;35.43;100053.28;4176579;28;20231;-69
2022/06/17 00:28:20;;;;;;;3.10;1.42;;;;;;;24.06;36.04;100063.50;4178016;28;20835;-70
2022/06/17 00:30:26;;;;;;;1.88;1.50;;;;;;;23.88;36.20;100059.88;4176484;28;20697;-70
2022/06/17 00:32:28;;;;;;;2.95;1.50;;;;;;;24.04;36.33;100046.59;4176994;28;20664;-70
2022/06/17 00:34:29;;;;;;;3.67;1.70;;;;;;;24.36;35.89;100038.81;4176157;28;20235;-70
2022/06/17 00:36:32;;;;;;;2.23;1.50;;;;;;;24.20;36.17;100062.16;4192925;28;20223;-70
2022/06/17 00:38:36;;;;;;;2.63;1.60;;;;;;;24.24;35.95;100057.88;4192871;28;20591;-70
2022/06/17 00:40:38;;;;;;;2.40;1.50;;;;;;;24.82;35.41;100047.81;4192761;28;20273;-70
2022/06/17 00:42:41;;;;;;;2.90;1.40;;;;;;;25.03;35.49;100053.56;4193812;28;20269;-70
2022/06/17 00:45:12;;;;;;;1.90;1.40;;;;;;;24.92;35.53;100044.44;4180452;28;20236;-70
2022/06/17 00:47:22;;;;;;;3.43;1.50;;;;;;;24.28;36.19;100058.25;4177072;28;20240;-70
2022/06/17 00:49:29;;;;;;;2.17;1.40;;;;;;;24.01;37.21;100066.09;4179783;28;20226;-70
2022/06/17 00:51:38;;;;;;;2.58;1.52;;;;;;;23.94;37.22;100045.34;4179003;28;20228;-70
2022/06/17 00:53:50;;;;;;;2.92;1.60;;;;;;;24.25;37.28;100050.56;4169558;28;20301;-70
2022/06/17 00:55:56;;;;;;;4.68;1.60;;;;;;;23.69;38.03;100070.06;4192513;28;20242;-70
2022/06/17 00:58:01;;;;;;;3.45;1.48;;;;;;;24.70;36.14;100055.19;4192607;28;20762;-70
2022/06/17 01:00:12;;;;;;;2.25;1.55;;;;;;;23.73;37.80;100060.38;4178515;28;20239;-70
2022/06/17 01:02:14;;;;;;;2.50;1.70;;;;;;;24.52;36.63;100048.06;4176728;28;20246;-70
2022/06/17 01:04:26;;;;;;;3.20;1.80;;;;;;;23.74;37.87;100066.66;4176565;28;20708;-70
2022/06/17 01:06:34;;;;;;;3.20;1.70;;;;;;;23.95;37.51;100044.25;4175887;28;20804;-70
2022/06/17 01:11:08;;;;;;;2.65;1.75;;;;;;;24.17;36.88;100048.25;4176194;28;20227;-70
2022/06/17 01:13:11;;;;;;;6.88;1.98;;;;;;;24.20;36.82;100058.63;4184652;28;20240;-70
2022/06/17 01:15:19;;;;;;;1.90;1.70;;;;;;;23.95;37.52;100067.88;4172410;28;20235;-70
2022/06/17 01:17:22;;;;;;;3.38;1.67;;;;;;;24.09;37.30;100057.56;4175791;28;20249;-70
2022/06/17 01:19:45;;;;;;;1.60;1.50;;;;;;;23.61;38.37;100061.47;4176147;28;20285;-70
2022/06/17 01:21:51;;;;;;;4.22;1.70;;;;;;;23.54;38.23;100053.44;4171538;28;20666;-70
2022/06/17 01:23:54;;;;;;;2.53;1.48;;;;;;;23.61;38.19;100050.63;4175739;28;20248;-70
2022/06/17 01:25:56;;;;;;;1.60;1.50;;;;;;;24.37;37.05;100045.09;4177642;28;20891;-70
2022/06/17 01:28:00;;;;;;;3.42;1.52;;;;;;;24.35;37.02;100063.53;4193089;28;20238;-70
2022/06/17 01:30:05;;;;;;;4.03;1.83;;;;;;;24.10;37.31;100062.75;4177797;28;20782;-70
2022/06/17 01:32:07;;;;;;;2.28;1.70;;;;;;;24.42;36.81;100069.63;4187900;28;20813;-70
2022/06/17 01:34:13;;;;;;;4.20;1.45;;;;;;;24.23;37.04;100072.56;4193212;28;20231;-70
2022/06/17 01:36:19;;;;;;;3.10;1.55;;;;;;;24.75;36.15;100077.03;4178867;28;20240;-70
2022/06/17 01:38:22;;;;;;;1.88;1.70;;;;;;;24.64;36.32;100080.63;4175436;28;20293;-70
2022/06/17 01:40:28;;;;;;;3.88;1.70;;;;;;;24.21;36.91;100096.44;4184368;28;20227;-70
2022/06/17 01:42:31;;;;;;;3.15;1.70;;;;;;;24.39;36.78;100087.25;4193745;28;20239;-70
2022/06/17 01:44:35;;;;;;;1.60;1.48;;;;;;;24.41;36.66;100090.56;4176666;28;20316;-70
2022/06/17 01:46:43;;;;;;;3.60;1.35;;;;;;;24.03;37.58;100091.13;4167613;28;20780;-70
2022/06/17 01:48:58;;;;;;;1.65;1.40;;;;;;;23.84;38.02;100095.88;4173575;28;20766;-70
2022/06/17 01:51:02;;;;;;;3.70;1.50;;;;;;;24.43;36.59;100084.84;4182458;28;20380;-70
2022/06/17 01:53:10;;;;;;;3.20;1.80;;;;;;;24.44;36.57;100095.50;4175722;28;20235;-70
2022/06/17 01:55:24;;;;;;;2.42;1.73;;;;;;;24.43;36.50;100102.00;4175212;28;20227;-69
2022/06/17 01:57:35;;;;;;;1.77;1.55;;;;;;;24.57;36.49;100090.84;4175237;28;20277;-70
2022/06/17 01:59:42;;;;;;;2.22;1.48;;;;;;;23.86;36.95;100102.75;4175994;28;20230;-70
2022/06/17 02:01:48;;;;;;;2.80;1.73;;;;;;;23.94;37.57;100094.22;4180632;28;20262;-70
2022/06/17 02:03:54;;;;;;;3.35;1.90;;;;;;;24.05;36.94;100080.84;4180587;28;20297;-70
2022/06/17 02:06:35;;;;;;;3.10;1.70;;;;;;;24.07;37.06;100074.09;4182442;28;20236;-70
2022/06/17 02:08:37;;;;;;;3.05;1.73;;;;;;;23.90;37.45;100079.47;4168025;28;20664;-70
2022/06/17 02:10:42;;;;;;;2.80;1.63;;;;;;;23.74;37.18;100102.75;4175306;28;20231;-70
2022/06/17 02:12:43;;;;;;;3.33;1.80;;;;;;;24.15;36.81;100093.81;4184438;28;20235;-70
2022/06/17 02:14:47;;;;;;;7.97;2.45;;;;;;;24.26;36.86;100093.81;4169793;28;20870;-70
2022/06/17 02:16:52;;;;;;;1.90;1.77;;;;;;;23.15;38.38;100083.75;4175057;28;20281;-70
2022/06/17 02:18:55;;;;;;;3.45;1.60;;;;;;;23.68;37.53;100095.56;4175688;28;20326;-70
2022/06/17 02:21:02;;;;;;;3.13;1.70;;;;;;;23.16;38.06;100093.50;4170806;28;20242;-69
2022/06/17 02:23:04;;;;;;;3.80;1.73;;;;;;;22.94;38.69;100081.59;4175368;28;20260;-70
2022/06/17 02:25:15;;;;;;;2.35;1.70;;;;;;;23.29;38.11;100078.09;4174725;28;20281;-70
2022/06/17 02:27:19;;;;;;;3.13;1.70;;;;;;;23.44;38.05;100070.28;4174849;28;20309;-70
2022/06/17 02:29:22;;;;;;;2.13;1.87;;;;;;;23.41;38.25;100067.25;4174707;28;20224;-70
2022/06/17 02:31:24;;;;;;;3.30;1.93;;;;;;;23.73;37.42;100075.84;4183428;28;20228;-70
2022/06/17 02:33:27;;;;;;;3.00;1.70;;;;;;;23.65;37.76;100068.06;4189822;28;20707;-70
2022/06/17 02:35:43;;;;;;;4.73;2.00;;;;;;;23.38;38.28;100076.66;4191751;28;20227;-70
2022/06/17 02:37:45;;;;;;;2.47;1.70;;;;;;;23.43;38.09;100073.25;4190644;28;20655;-70
2022/06/17 02:39:50;;;;;;;2.00;1.70;;;;;;;23.22;38.65;100067.34;4192310;28;20265;-70
2022/06/17 02:41:52;;;;;;;2.58;1.55;;;;;;;22.95;38.94;100067.78;4192373;28;20234;-70
2022/06/17 02:44:06;;;;;;;3.53;1.83;;;;;;;23.78;37.85;100075.94;4190574;28;20300;-70
2022/06/17 02:46:15;;;;;;;3.10;2.00;;;;;;;23.37;38.44;100080.44;4170885;28;20251;-70
2022/06/17 02:48:24;;;;;;;2.43;1.90;;;;;;;22.90;39.36;100077.66;4173630;28;20255;-70
2022/06/17 02:50:28;;;;;;;2.03;1.80;;;;;;;23.21;38.30;100087.38;4183474;28;20276;-69
2022/06/17 02:52:36;;;;;;;2.93;1.90;;;;;;;22.99;39.09;100074.38;4175291;28;20255;-70
2022/06/17 02:54:40;;;;;;;2.70;1.70;;;;;;;23.36;38.32;100073.38;4183182;28;20260;-70
2022/06/17 02:56:47;;;;;;;3.10;1.90;;;;;;;22.60;39.73;100083.94;4191648;28;20281;-70
2022/06/17 02:59:16;;;;;;;3.00;1.43;;;;;;;22.23;40.02;100068.56;4184127;28;20726;-70
2022/06/17 03:01:27;;;;;;;1.93;1.77;;;;;;;22.34;40.08;100045.34;4176443;28;20228;-69
2022/06/17 03:03:29;;;;;;;3.10;1.90;;;;;;;22.43;39.72;100045.84;4191451;28;20616;-70
2022/06/17 03:05:36;;;;;;;2.53;1.70;;;;;;;22.75;39.39;100059.13;4190770;28;20237;-70
2022/06/17 03:07:39;;;;;;;3.87;1.90;;;;;;;22.53;39.63;100072.38;4171861;28;20252;-71
2022/06/17 03:09:41;;;;;;;3.80;2.00;;;;;;;22.46;39.88;100057.03;4174332;28;20243;-70
2022/06/17 03:11:45;;;;;;;3.28;2.03;;;;;;;22.03;40.71;100060.69;4176429;28;20278;-70
2022/06/17 03:13:53;;;;;;;2.10;1.70;;;;;;;22.93;39.13;100060.94;4183208;28;20301;-70
2022/06/17 03:15:58;;;;;;;2.53;1.73;;;;;;;22.92;38.96;100065.53;4167585;28;20313;-70
2022/06/17 03:18:00;;;;;;;4.07;2.03;;;;;;;22.72;39.38;100076.66;4175376;28;20712;-70
2022/06/17 03:20:06;;;;;;;5.23;2.00;;;;;;;22.43;39.89;100070.22;4174638;28;20258;-70
2022/06/17 03:22:11;;;;;;;4.17;2.00;;;;;;;22.48;39.83;100066.84;4171534;28;20235;-70
2022/06/17 03:24:24;;;;;;;2.07;1.70;;;;;;;22.57;39.64;100065.44;4174266;28;20285;-70
2022/06/17 03:26:30;;;;;;;5.67;2.83;;;;;;;22.49;39.92;100058.47;4173853;28;20393;-70
2022/06/17 03:28:41;;;;;;;3.67;1.70;;;;;;;22.38;39.83;100065.50;4182268;28;20640;-70
2022/06/17 03:31:14;;;;;;;3.80;1.90;;;;;;;22.71;39.66;100053.34;4182358;28;20246;-70
2022/06/17 03:33:32;;;;;;;8.10;1.77;;;;;;;22.67;39.65;100071.13;4168336;28;20936;-70
2022/06/17 03:35:37;;;;;;;3.97;1.90;;;;;;;21.61;40.92;100081.34;4172996;28;20289;-70
2022/06/17 03:37:49;;;;;;;4.03;2.10;;;;;;;22.05;40.61;100080.28;4174824;28;20239;-70
2022/06/17 03:39:55;;;;;;;4.83;2.07;;;;;;;22.12;40.26;100084.75;4172009;28;20239;-70
2022/06/17 03:42:18;;;;;;;2.07;1.87;;;;;;;22.21;40.66;100076.09;4158723;28;21943;-70
2022/06/17 03:44:25;;;;;;;3.50;1.93;;;;;;;21.93;40.66;100095.59;4159267;28;20792;-69
2022/06/17 03:46:31;;;;;;;2.83;2.30;;;;;;;21.52;41.41;100086.25;4165226;28;20244;-71
2022/06/17 03:48:43;;;;;;;2.83;2.30;;;;;;;21.71;41.28;100087.09;4168962;28;20243;-70
2022/06/17 03:50:47;;;;;;;3.97;2.30;;;;;;;21.92;40.90;100091.25;4168290;28;20229;-70
2022/06/17 03:52:56;;;;;;;2.20;2.00;;;;;;;22.01;40.95;100092.59;4166941;28;20289;-70
2022/06/17 03:54:58;;;;;;;3.13;1.90;;;;;;;21.89;41.09;100100.66;4169271;28;20720;-69
2022/06/17 03:57:01;;;;;;;2.60;1.87;;;;;;;21.64;41.56;100106.13;4167693;28;20861;-69
2022/06/17 03:59:06;;;;;;;2.37;1.80;;;;;;;21.61;41.53;100101.13;4165595;28;20221;-69
2022/06/17 04:01:33;;;;;;;2.40;1.93;;;;;;;21.59;41.54;100105.94;4182890;28;20672;-69
2022/06/17 04:03:38;;;;;;;3.17;2.13;;;;;;;20.67;43.29;100105.59;4185365;28;20240;-69
2022/06/17 04:05:42;;;;;;;3.83;2.50;;;;;;;21.78;41.47;100090.59;4169660;28;20305;-69
2022/06/17 04:07:44;;;;;;;2.80;1.87;;;;;;;20.79;42.70;100118.19;4179067;28;20235;-69
2022/06/17 04:09:47;;;;;;;2.93;2.10;;;;;;;21.85;41.59;100102.16;4179535;28;20659;-69
2022/06/17 04:11:52;;;;;;;3.80;1.90;;;;;;;21.33;42.53;100093.50;4183928;28;20266;-69
2022/06/17 04:13:58;;;;;;;4.23;2.50;;;;;;;21.30;42.25;100093.94;4179424;28;20301;-70
2022/06/17 04:16:14;;;;;;;4.73;2.23;;;;;;;21.20;42.35;100090.91;4171985;28;20262;-69
2022/06/17 04:18:16;;;;;;;2.43;1.90;;;;;;;20.75;43.29;100105.34;4192454;28;20235;-70
2022/06/17 04:20:33;;;;;;;2.10;2.00;;;;;;;21.23;42.54;100094.00;4186634;28;20233;-69
2022/06/17 04:22:36;;;;;;;3.63;1.80;;;;;;;21.17;42.52;100103.84;4177571;28;20239;-70
2022/06/17 04:24:39;;;;;;;6.83;2.23;;;;;;;21.41;42.33;100106.75;4176820;28;20590;-72
2022/06/17 04:26:43;;;;;;;4.87;2.27;;;;;;;21.99;41.74;100094.72;4177359;28;20232;-71
2022/06/17 04:28:49;;;;;;;5.30;2.20;;;;;;;21.39;42.54;100106.13;4177058;28;20297;-71
2022/06/17 04:31:06;;;;;;;3.40;2.27;;;;;;;21.97;41.76;100104.13;4177431;28;20313;-71
2022/06/17 04:33:15;;;;;;;6.63;2.80;;;;;;;21.38;42.61;100123.41;4176818;28;20746;-71
2022/06/17 04:35:17;;;;;;;4.67;2.50;;;;;;;21.44;42.12;100133.34;4176446;28;20235;-71
2022/06/17 04:37:21;;;;;;;4.03;2.30;;;;;;;21.32;42.90;100116.19;4177614;28;20231;-71
2022/06/17 04:39:33;;;;;;;4.00;2.10;;;;;;;22.09;41.75;100118.56;4177848;28;20310;-71
2022/06/17 04:41:38;;;;;;;3.17;2.20;;;;;;;21.93;42.38;100133.50;4177296;28;20223;-71
2022/06/17 04:43:47;;;;;;;8.87;2.50;;;;;;;21.54;42.49;100144.50;4176636;28;20248;-71
2022/06/17 04:45:55;;;;;;;3.17;1.93;;;;;;;21.82;41.97;100142.41;4175937;28;20228;-71
2022/06/17 04:47:59;;;;;;;4.53;2.40;;;;;;;21.50;42.77;100148.69;4176582;28;20242;-71
2022/06/17 04:50:08;;;;;;;2.67;2.10;;;;;;;21.46;42.91;100152.91;4182852;28;20296;-71
2022/06/17 04:52:39;;;;;;;4.53;2.10;;;;;;;22.10;41.69;100155.38;4177273;28;20251;-71
2022/06/17 04:54:40;;;;;;;2.37;1.90;;;;;;;21.77;42.16;100163.88;4166258;28;20244;-71
2022/06/17 04:56:46;;;;;;;3.27;1.90;;;;;;;21.13;43.23;100170.19;4176662;28;20720;-71
2022/06/17 04:58:47;;;;;;;5.23;2.30;;;;;;;21.76;41.72;100173.06;4177772;28;20236;-71
2022/06/17 05:00:54;;;;;;;3.20;2.20;;;;;;;22.16;41.64;100161.81;4176603;28;20236;-71
2022/06/17 05:02:57;;;;;;;2.10;1.90;;;;;;;22.47;41.00;100174.38;4176958;28;20317;-71
2022/06/17 05:05:06;;;;;;;4.37;2.00;;;;;;;21.56;42.63;100179.44;4176445;28;20709;-71
2022/06/17 05:07:08;;;;;;;4.73;2.30;;;;;;;22.39;41.37;100167.41;4176183;28;20223;-71
2022/06/17 05:09:31;;;;;;;2.20;2.00;;;;;;;22.60;41.48;100173.38;4176105;28;20228;-71
2022/06/17 05:11:36;;;;;;;3.20;1.87;;;;;;;22.37;41.66;100196.59;4177193;28;20251;-71
2022/06/17 05:13:58;;;;;;;5.50;2.20;;;;;;;22.57;41.55;100181.97;4168269;28;20248;-71
2022/06/17 05:16:01;;;;;;;2.37;2.07;;;;;;;21.85;42.70;100182.53;4170785;28;20239;-71
2022/06/17 05:18:02;;;;;;;3.80;2.13;;;;;;;22.49;41.63;100177.69;4177178;28;20228;-71
2022/06/17 05:20:06;;;;;;;2.47;1.93;;;;;;;22.61;41.46;100185.88;4174741;28;20657;-71
2022/06/17 05:22:25;;;;;;;2.47;1.80;;;;;;;22.09;42.24;100203.31;4177130;28;20227;-71
2022/06/17 05:24:28;;;;;;;5.33;2.10;;;;;;;21.94;42.34;100207.44;4166431;28;20227;-71
2022/06/17 05:26:30;;;;;;;3.30;2.30;;;;;;;22.41;41.65;100200.50;4175451;28;20228;-71
2022/06/17 05:28:32;;;;;;;5.23;2.13;;;;;;;22.30;41.82;100213.97;4176747;28;20232;-71
2022/06/17 05:30:37;;;;;;;4.10;2.10;;;;;;;22.68;41.42;100202.06;4162927;28;20239;-71
2022/06/17 05:32:50;;;;;;;2.33;1.90;;;;;;;23.48;40.49;100190.88;4157199;28;20252;-71
2022/06/17 05:34:51;;;;;;;2.27;2.00;;;;;;;23.25;40.62;100209.81;4177321;28;20236;-71
2022/06/17 05:36:56;;;;;;;6.63;2.35;;;;;;;22.64;41.37;100218.78;4177583;28;20993;-71
2022/06/17 05:39:03;;;;;;;1.90;1.80;;;;;;;23.00;41.46;100219.78;4174690;28;20223;-71
2022/06/17 05:41:06;;;;;;;2.47;1.75;;;;;;;22.93;41.32;100215.50;4175988;28;20285;-71
2022/06/17 05:43:09;;;;;;;3.07;2.20;;;;;;;23.77;40.27;100218.19;4176660;28;20306;-71
2022/06/17 05:45:16;;;;;;;3.28;2.17;;;;;;;23.28;41.02;100229.19;4164182;28;20232;-71
2022/06/17 05:47:18;;;;;;;7.00;2.13;;;;;;;23.38;40.59;100237.59;4161018;28;20229;-71
2022/06/17 05:49:19;;;;;;;3.17;1.80;;;;;;;23.25;40.88;100232.38;4159714;28;20238;-71
2022/06/17 05:51:21;;;;;;;6.53;2.25;;;;;;;23.58;41.01;100222.91;4159011;28;20263;-71
2022/06/17 05:53:22;;;;;;;3.38;1.67;;;;;;;23.04;41.88;100233.69;4166301;28;20966;-71
2022/06/17 05:55:28;;;;;;;3.35;1.90;;;;;;;23.37;40.89;100224.25;4164135;28;20229;-72
2022/06/17 05:57:29;;;;;;;4.22;2.10;;;;;;;22.57;41.81;100228.84;4175267;28;20224;-71
2022/06/17 05:59:31;;;;;;;6.78;2.33;;;;;;;23.43;40.82;100228.75;4170889;28;20240;-71
2022/06/17 06:01:33;;;;;;;3.28;2.20;;;;;;;23.33;40.76;100237.47;4175066;28;20827;-71
2022/06/17 06:03:35;;;;;;;3.13;1.90;;;;;;;23.68;40.46;100227.75;4175744;28;20228;-71
2022/06/17 06:05:36;;;;;;;2.90;1.73;;;;;;;23.70;40.54;100225.63;4175076;28;20220;-71
2022/06/17 06:07:38;;;;;;;3.67;1.85;;;;;;;23.81;40.20;100238.38;4169370;28;21288;-71
2022/06/17 06:09:40;;;;;;;3.60;2.20;;;;;;;23.26;41.47;100239.44;4176019;28;20274;-72
2022/06/17 06:11:41;;;;;;;2.67;1.73;;;;;;;23.54;41.05;100243.41;4173476;28;20232;-71
2022/06/17 06:13:43;;;;;;;4.13;2.20;;;;;;;23.68;40.75;100244.84;4172812;28;20789;-71
2022/06/17 06:15:47;;;;;;;2.47;1.70;;;;;;;22.95;41.93;100244.06;4174677;28;20723;-71
2022/06/17 06:17:49;;;;;;;7.20;2.08;;;;;;;23.56;41.42;100225.84;4175081;28;20723;-71
2022/06/17 06:19:51;;;;;;;3.63;2.00;;;;;;;24.21;40.33;100224.13;4174836;28;20895;-71
2022/06/17 06:21:52;;;;;;;4.00;2.10;;;;;;;23.76;41.35;100232.84;4169849;28;20232;-71
2022/06/17 06:23:56;;;;;;;2.75;2.20;;;;;;;24.05;40.99;100235.69;4175083;28;20305;-71
2022/06/17 06:25:57;;;;;;;3.53;2.25;;;;;;;23.80;40.78;100236.72;4175589;28;20709;-71
2022/06/17 06:28:11;;;;;;;4.40;2.00;;;;;;;23.56;41.55;100252.16;4174287;28;20231;-71
2022/06/17 06:30:20;;;;;;;5.68;2.40;;;;;;;23.67;40.09;100231.50;4175896;28;20273;-72
2022/06/17 06:32:22;;;;;;;4.72;2.13;;;;;;;24.25;40.29;100238.06;4182291;28;20812;-71
2022/06/17 06:34:24;;;;;;;2.55;1.77;;;;;;;23.79;40.97;100248.66;4174090;28;20230;-71
2022/06/17 06:36:26;;;;;;;3.55;2.10;;;;;;;23.94;40.24;100240.88;4166734;28;20858;-71
2022/06/17 06:38:28;;;;;;;3.90;2.05;;;;;;;23.35;40.45;100251.63;4165945;28;20737;-72
2022/06/17 06:40:30;;;;;;;4.10;2.20;;;;;;;23.90;40.23;100236.97;4190542;28;20231;-71
2022/06/17 06:42:32;;;;;;;5.60;2.30;;;;;;;23.37;40.48;100243.25;4191949;28;20238;-71
2022/06/17 06:44:34;;;;;;;2.55;1.80;;;;;;;24.24;40.00;100258.13;4180880;28;20314;-71
2022/06/17 06:46:36;;;;;;;6.50;2.13;;;;;;;24.49;40.12;100242.38;4193264;28;20613;-71
2022/06/17 06:48:39;;;;;;;3.88;2.03;;;;;;;23.68;39.80;100265.75;4186454;28;20249;-72
2022/06/17 06:50:41;;;;;;;3.33;2.20;;;;;;;24.46;39.70;100263.75;4170245;28;20240;-71
2022/06/17 06:52:43;;;;;;;4.57;1.83;;;;;;;24.40;39.70;100259.31;4175225;28;20676;-71
2022/06/17 06:54:45;;;;;;;4.00;1.90;;;;;;;24.22;39.96;100265.69;4174270;28;20240;-72
2022/06/17 06:56:47;;;;;;;2.30;2.05;;;;;;;24.48;39.53;100254.31;4175639;28;20301;-72
2022/06/17 06:58:49;;;;;;;6.55;2.28;;;;;;;24.41;39.64;100263.66;4175083;28;20866;-72
2022/06/17 07:00:54;;;;;;;2.53;1.83;;;;;;;24.26;39.90;100265.00;4183030;28;20231;-72
2022/06/17 07:02:56;;;;;;;3.67;2.00;;;;;;;24.46;39.58;100256.47;4185757;28;20278;-72
2022/06/17 07:04:58;;;;;;;5.07;1.90;;;;;;;24.36;39.41;100267.09;4191030;28;20235;-72
2022/06/17 07:06:59;;;;;;;2.20;1.80;;;;;;;25.02;39.07;100254.06;4176600;28;20237;-73
2022/06/17 07:09:02;;;;;;;3.35;2.00;;;;;;;25.30;38.91;100257.00;4175325;28;20235;-72
2022/06/17 07:11:07;;;;;;;5.07;2.17;;;;;;;25.04;39.37;100268.25;4174834;28;20696;-72
2022/06/17 07:13:16;;;;;;;5.05;1.92;;;;;;;25.58;38.76;100270.59;4180094;28;20309;-72
2022/06/17 07:15:18;;;;;;;4.97;2.28;;;;;;;25.38;39.06;100271.06;4181868;28;20661;-72
2022/06/17 07:17:20;;;;;;;2.67;2.30;;;;;;;24.96;39.23;100275.97;4191966;28;20223;-72
2022/06/17 07:19:22;;;;;;;2.95;1.90;;;;;;;24.92;39.49;100275.63;4192045;28;20227;-72
2022/06/17 07:21:23;;;;;;;5.43;2.20;;;;;;;24.84;39.88;100279.53;4181277;28;20955;-72
2022/06/17 07:23:33;;;;;;;3.65;2.10;;;;;;;25.25;39.24;100274.06;4177306;28;20265;-72
2022/06/17 07:25:36;;;;;;;4.55;2.13;;;;;;;25.16;39.01;100275.53;4174936;28;20231;-72
2022/06/17 07:27:38;;;;;;;4.80;2.40;;;;;;;25.43;39.27;100270.34;4168592;28;20281;-72
2022/06/17 07:29:39;;;;;;;3.83;2.22;;;;;;;25.15;39.41;100274.69;4177422;28;20231;-72
2022/06/17 07:31:41;;;;;;;2.17;1.58;;;;;;;25.25;39.21;100282.22;4178128;28;20266;-72
2022/06/17 07:33:43;;;;;;;3.20;1.60;;;;;;;25.55;39.40;100275.72;4177255;28;20313;-72
2022/06/17 07:35:46;;;;;;;4.03;2.08;;;;;;;25.02;39.87;100266.81;4178472;28;20233;-72
2022/06/17 07:40:15;;;;;;;2.95;1.98;;;;;;;25.57;39.26;100255.31;4178653;28;20234;-72
2022/06/17 07:42:17;;;;;;;3.40;2.00;;;;;;;25.57;39.69;100262.66;4178688;28;20236;-72
2022/06/17 07:44:19;;;;;;;4.53;2.45;;;;;;;25.07;39.40;100263.38;4175473;28;20330;-72
2022/06/17 07:46:22;;;;;;;5.07;2.00;;;;;;;25.53;39.66;100265.06;4187285;28;20258;-72
2022/06/17 07:48:24;;;;;;;4.50;2.20;;;;;;;25.32;38.81;100266.56;4177565;28;20240;-72
2022/06/17 07:50:30;;;;;;;5.25;2.50;;;;;;;25.28;39.33;100257.25;4186768;28;21000;-72
2022/06/17 07:52:31;;;;;;;2.45;1.85;;;;;;;25.65;39.28;100259.53;4178803;28;20236;-72
2022/06/17 07:54:33;;;;;;;3.38;1.90;;;;;;;25.76;38.78;100257.78;4176790;28;20783;-72
2022/06/17 07:56:35;;;;;;;1.88;1.75;;;;;;;25.94;38.39;100249.41;4180205;28;20355;-72
2022/06/17 07:58:37;;;;;;;2.00;1.65;;;;;;;25.76;39.07;100257.78;4178428;28;20231;-71
2022/06/17 08:00:42;;;;;;;10.10;2.38;;;;;;;25.85;38.66;100255.50;4175848;28;20243;-72
2022/06/17 08:02:45;;;;;;;3.10;2.05;;;;;;;25.81;39.54;100251.63;4176884;28;20239;-72
2022/06/17 08:04:47;;;;;;;3.85;2.17;;;;;;;26.40;37.94;100241.03;4177497;28;20659;-72
2022/06/17 08:06:49;;;;;;;3.10;2.00;;;;;;;26.07;38.64;100247.41;4177967;28;20240;-72
2022/06/17 08:08:51;;;;;;;6.70;2.10;;;;;;;25.86;38.45;100249.78;4177859;28;20318;-71
2022/06/17 08:10:56;;;;;;;2.95;2.10;;;;;;;26.08;38.39;100243.59;4188347;28;20235;-72
2022/06/17 08:12:58;;;;;;;4.72;2.05;;;;;;;25.51;39.07;100260.91;4190702;28;20289;-72
2022/06/17 08:14:59;;;;;;;3.58;2.33;;;;;;;25.88;38.87;100257.72;4171130;28;20236;-72
2022/06/17 08:17:03;;;;;;;3.08;2.15;;;;;;;26.30;37.46;100265.44;4184579;28;20227;-72
2022/06/17 08:19:07;;;;;;;5.68;2.50;;;;;;;25.57;39.45;100268.13;4176497;28;20231;-73
2022/06/17 08:21:11;;;;;;;4.43;1.80;;;;;;;26.38;38.06;100258.72;4171384;28;20224;-72
2022/06/17 08:23:12;;;;;;;3.10;2.20;;;;;;;26.13;38.20;100269.03;4176502;28;20269;-71
2022/06/17 08:25:15;;;;;;;7.28;2.20;;;;;;;26.39;37.77;100261.22;4189746;28;20700;-72
2022/06/17 08:27:16;;;;;;;5.38;1.90;;;;;;;26.44;37.93;100274.91;4194231;28;20231;-72
2022/06/17 08:29:19;;;;;;;4.35;1.88;;;;;;;26.53;37.51;100273.41;4186630;28;20233;-72
2022/06/17 08:31:41;;;;;;;3.63;1.90;;;;;;;26.18;38.54;100262.81;4167640;28;20317;-72
2022/06/17 08:33:43;;;;;;;4.18;1.73;;;;;;;26.95;38.64;100250.16;4178402;28;20318;-72
2022/06/17 08:35:50;;;;;;;2.97;1.90;;;;;;;26.87;37.11;100269.72;4192148;28;20666;-72
2022/06/17 08:37:55;;;;;;;3.13;1.73;;;;;;;27.24;37.24;100269.88;4176722;28;20793;-72
2022/06/17 08:39:58;;;;;;;6.15;1.77;;;;;;;26.57;38.50;100264.72;4188725;28;20285;-72
2022/06/17 08:42:31;;;;;;;2.53;1.63;;;;;;;26.24;38.33;100275.44;4193677;28;20231;-72
2022/06/17 08:44:54;;;;;;;3.67;1.80;;;;;;;27.14;37.37;100277.97;4151117;28;20228;-73
2022/06/17 08:47:26;;;;;;;2.42;1.90;;;;;;;26.95;36.81;100266.53;4155080;28;20298;-72
2022/06/17 08:49:46;;;;;;;4.78;2.10;;;;;;;27.41;37.32;100271.66;4172119;28;20255;-72
2022/06/17 08:52:02;;;;;;;3.05;1.70;;;;;;;26.02;38.07;100277.31;4176563;28;20254;-72
2022/06/17 08:54:06;;;;;;;4.25;1.88;;;;;;;26.87;37.77;100256.91;4174079;28;20289;-72
2022/06/17 08:56:25;;;;;;;3.05;1.80;;;;;;;27.14;38.08;100252.56;4177544;28;20235;-72
2022/06/17 08:58:47;;;;;;;2.78;1.95;;;;;;;27.15;36.96;100256.97;4177525;28;20212;-72
2022/06/17 09:01:07;;;;;;;3.55;1.88;;;;;;;27.52;37.14;100250.75;4169185;28;20290;-72
2022/06/17 09:03:09;;;;;;;2.45;1.83;;;;;;;27.86;36.38;100273.16;4177606;28;20228;-72
2022/06/17 09:05:26;;;;;;;3.40;1.90;;;;;;;27.48;36.60;100275.00;4183828;28;20228;-73
2022/06/17 09:07:41;;;;;;;4.50;2.22;;;;;;;27.40;36.89;100270.84;4168210;28;20223;-72
2022/06/17 09:10:14;;;;;;;4.80;1.80;;;;;;;27.51;36.33;100266.28;4177121;28;20259;-72
2022/06/17 09:12:33;;;;;;;3.53;1.70;;;;;;;27.85;36.08;100270.69;4192615;28;20276;-72
2022/06/17 09:15:01;;;;;;;2.42;1.80;;;;;;;27.72;35.78;100282.88;4173487;28;20294;-72
2022/06/17 09:17:12;;;;;;;3.00;1.88;;;;;;;27.61;35.42;100276.53;4191588;28;20239;-72
2022/06/17 09:19:32;;;;;;;7.35;1.92;;;;;;;27.61;37.09;100262.88;4192368;28;20227;-73
2022/06/17 09:21:47;;;;;;;2.55;1.70;;;;;;;27.53;36.15;100261.41;4178824;28;20227;-72
2022/06/17 09:23:50;;;;;;;4.28;1.75;;;;;;;26.81;36.56;100268.03;4176411;28;20270;-72
2022/06/17 09:25:55;;;;;;;9.57;1.60;;;;;;;27.99;35.01;100267.25;4175682;28;20289;-72
2022/06/17 09:27:57;;;;;;;3.22;1.80;;;;;;;27.78;36.36;100273.66;4176866;28;20232;-72
2022/06/17 09:30:03;;;;;;;3.92;1.73;;;;;;;27.83;35.46;100268.22;4176617;28;20244;-71
2022/06/17 09:32:14;;;;;;;2.92;1.95;;;;;;;27.89;34.47;100264.44;4176233;28;20246;-72
2022/06/17 09:34:51;;;;;;;4.63;1.60;;;;;;;27.88;35.10;100281.09;4177262;28;20219;-72
2022/06/17 09:37:16;;;;;;;4.47;1.75;;;;;;;27.34;33.95;100282.81;4173080;28;20243;-73
2022/06/17 09:39:24;;;;;;;3.28;1.58;;;;;;;28.00;35.75;100270.78;4178688;28;20281;-72
2022/06/17 09:42:00;;;;;;;2.88;2.00;;;;;;;28.78;34.40;100261.97;4176590;28;20719;-72
2022/06/17 09:44:07;;;;;;;2.13;1.60;;;;;;;28.14;34.20;100274.72;4175058;28;20282;-72
2022/06/17 09:46:52;;;;;;;4.28;1.75;;;;;;;28.23;34.80;100269.63;4188692;28;20261;-72
2022/06/17 09:49:03;;;;;;;3.30;1.83;;;;;;;27.82;35.94;100255.66;4147627;28;20237;-72
2022/06/17 09:51:17;;;;;;;4.45;1.63;;;;;;;26.65;36.33;100258.84;4153658;28;20290;-72
2022/06/17 09:53:30;;;;;;;4.82;1.58;;;;;;;27.36;36.00;100230.66;4159941;28;20225;-72
2022/06/17 09:55:35;;;;;;;4.28;1.88;;;;;;;28.06;35.55;100245.16;4169859;28;20220;-72